createdAt,value
2018-03-18T00:01:51.975Z,28.50
2018-03-18T00:04:19.986Z,28.80
2018-03-18T00:06:47.641Z,28.20
2018-03-18T00:09:15.824Z,28.40
2018-03-18T00:11:43.433Z,28.60
2018-03-18T00:14:11.701Z,28.30
2018-03-18T00:16:39.309Z,28.40
2018-03-18T00:19:07.093Z,29.70
2018-03-18T00:21:34.746Z,29.70
2018-03-18T00:24:02.407Z,28.30
2018-03-18T00:26:30.020Z,29.00
2018-03-18T00:28:58.452Z,28.50
2018-03-18T00:31:26.113Z,28.20
2018-03-18T00:33:53.766Z,28.30
2018-03-18T00:36:21.650Z,30.10
2018-03-18T00:38:49.884Z,28.70
2018-03-18T00:41:17.544Z,28.90
2018-03-18T00:43:45.161Z,29.40
2018-03-18T00:46:13.158Z,29.60
2018-03-18T00:48:40.777Z,28.20
2018-03-18T00:51:08.449Z,29.50
2018-03-18T00:53:36.056Z,29.20
2018-03-18T00:56:04.126Z,28.80
2018-03-18T00:58:32.228Z,29.40
2018-03-18T01:00:59.882Z,28.40
2018-03-18T01:03:27.538Z,29.40
2018-03-18T01:05:55.159Z,29.10
2018-03-18T01:08:22.817Z,29.90
2018-03-18T01:10:50.432Z,28.50
2018-03-18T01:13:18.106Z,29.40
2018-03-18T01:15:45.716Z,30.20
2018-03-18T01:18:13.329Z,29.70
2018-03-18T01:20:40.994Z,28.30
2018-03-18T01:23:08.652Z,29.90
2018-03-18T01:25:36.264Z,30.00
2018-03-18T01:28:03.937Z,30.50
2018-03-18T01:30:31.599Z,30.30
2018-03-18T01:32:59.277Z,30.40
2018-03-18T01:35:26.896Z,29.20
2018-03-18T01:37:54.552Z,29.70
2018-03-18T01:40:22.208Z,30.70
2018-03-18T01:42:49.864Z,30.60
2018-03-18T01:45:17.524Z,28.90
2018-03-18T01:47:45.939Z,30.00
2018-03-18T01:50:13.598Z,30.10
2018-03-18T01:52:41.212Z,29.80
2018-03-18T01:55:08.822Z,30.80
2018-03-18T01:57:36.482Z,30.70
2018-03-18T02:00:04.244Z,31.10
2018-03-18T02:02:31.859Z,30.20
2018-03-18T02:04:59.518Z,30.40
2018-03-18T02:07:27.124Z,30.50
2018-03-18T02:09:54.781Z,29.60
2018-03-18T02:12:22.580Z,29.30
2018-03-18T02:14:50.233Z,31.30
2018-03-18T02:17:17.844Z,31.00
2018-03-18T02:19:45.512Z,30.10
2018-03-18T02:22:13.308Z,30.40
2018-03-18T02:24:40.929Z,30.00
2018-03-18T02:27:09.149Z,30.70
2018-03-18T02:29:36.801Z,30.00
2018-03-18T02:32:04.835Z,30.40
2018-03-18T02:34:32.533Z,30.90
2018-03-18T02:37:00.153Z,30.90
2018-03-18T02:39:27.949Z,29.90
2018-03-18T02:41:55.570Z,30.70
2018-03-18T02:44:23.243Z,29.40
2018-03-18T02:46:50.862Z,30.50
2018-03-18T02:49:18.525Z,30.10
2018-03-18T02:51:46.137Z,31.70
2018-03-18T02:54:14.289Z,30.60
2018-03-18T02:56:41.957Z,30.70
2018-03-18T02:59:09.572Z,30.80
2018-03-18T03:01:37.241Z,31.00
2018-03-18T03:04:05.617Z,31.00
2018-03-18T03:06:34.037Z,30.10
2018-03-18T03:09:01.644Z,30.50
2018-03-18T03:11:29.317Z,30.10
2018-03-18T03:13:56.924Z,30.70
2018-03-18T03:16:24.584Z,31.50
2018-03-18T03:18:52.197Z,31.20
2018-03-18T03:21:19.851Z,31.00
2018-03-18T03:23:47.468Z,31.20
2018-03-18T03:26:15.125Z,29.20
2018-03-18T03:28:42.789Z,31.60
2018-03-18T03:31:10.420Z,31.10
2018-03-18T03:33:38.085Z,30.80
2018-03-18T03:36:05.760Z,30.30
2018-03-18T03:38:33.370Z,31.90
2018-03-18T03:41:01.793Z,30.90
2018-03-18T03:43:29.412Z,30.90
2018-03-18T03:45:57.078Z,31.50
2018-03-18T03:48:24.719Z,30.20
2018-03-18T03:50:53.145Z,31.70
2018-03-18T03:53:20.828Z,31.60
2018-03-18T03:55:48.438Z,31.60
2018-03-18T03:58:16.052Z,31.10
2018-03-18T04:00:43.701Z,30.00
2018-03-18T04:03:11.357Z,30.50
2018-03-18T04:05:39.015Z,31.60
2018-03-18T04:08:07.584Z,31.70
2018-03-18T04:10:35.260Z,31.30
2018-03-18T04:13:02.886Z,30.40
2018-03-18T04:15:30.556Z,31.60
2018-03-18T04:17:58.212Z,31.70
2018-03-18T04:20:25.827Z,31.20
2018-03-18T04:22:53.492Z,32.00
2018-03-18T04:25:21.108Z,32.30
2018-03-18T04:27:48.720Z,32.20
2018-03-18T04:30:16.444Z,31.70
2018-03-18T04:32:44.206Z,30.00
2018-03-18T04:35:13.622Z,31.60
2018-03-18T04:37:41.426Z,30.00
2018-03-18T04:40:09.080Z,30.60
2018-03-18T04:42:36.786Z,30.20
2018-03-18T04:45:05.339Z,31.80
2018-03-18T04:47:32.950Z,31.50
2018-03-18T04:50:00.613Z,32.00
2018-03-18T04:52:28.704Z,31.80
2018-03-18T04:54:57.136Z,31.00
2018-03-18T04:57:24.797Z,30.70
2018-03-18T04:59:53.009Z,31.50
2018-03-18T05:02:20.630Z,30.90
2018-03-18T05:04:48.281Z,32.00
2018-03-18T05:07:15.893Z,31.90
2018-03-18T05:09:44.328Z,31.20
2018-03-18T05:12:11.997Z,31.10
2018-03-18T05:14:39.675Z,30.10
2018-03-18T05:17:07.317Z,29.50
2018-03-18T05:19:35.077Z,31.00
2018-03-18T05:22:03.056Z,30.30
2018-03-18T05:24:30.678Z,30.90
2018-03-18T05:26:58.295Z,30.30
2018-03-18T05:29:26.745Z,32.20
2018-03-18T05:31:54.423Z,30.30
2018-03-18T05:34:22.036Z,31.00
2018-03-18T05:36:49.698Z,30.30
2018-03-18T05:39:17.312Z,30.70
2018-03-18T05:41:44.973Z,30.10
2018-03-18T05:44:12.629Z,29.60
2018-03-18T05:46:40.283Z,31.20
2018-03-18T05:49:07.921Z,30.90
2018-03-18T05:51:35.534Z,30.30
2018-03-18T05:54:03.448Z,30.70
2018-03-18T05:56:31.069Z,30.30
2018-03-18T05:58:58.680Z,30.00
2018-03-18T06:01:26.359Z,31.00
2018-03-18T06:03:53.973Z,30.00
2018-03-18T06:06:21.629Z,31.00
2018-03-18T06:08:49.257Z,29.80
2018-03-18T06:11:16.920Z,29.80
2018-03-18T06:13:44.566Z,29.20
2018-03-18T06:16:12.234Z,28.50
2018-03-18T06:18:40.668Z,29.90
2018-03-18T06:21:09.232Z,29.90
2018-03-18T06:23:36.903Z,29.10
2018-03-18T06:26:04.875Z,29.10
2018-03-18T06:28:32.481Z,29.60
2018-03-18T06:31:00.094Z,29.30
2018-03-18T06:33:28.253Z,29.50
2018-03-18T06:35:56.108Z,28.90
2018-03-18T06:38:23.722Z,28.20
2018-03-18T06:40:51.382Z,28.80
2018-03-18T06:43:18.992Z,28.50
2018-03-18T06:45:46.658Z,28.00
2018-03-18T06:48:15.073Z,27.70
2018-03-18T06:50:42.733Z,27.90
2018-03-18T06:53:11.857Z,26.50
2018-03-18T06:55:40.330Z,26.60
2018-03-18T06:58:08.798Z,28.20
2018-03-18T07:00:36.475Z,27.80
2018-03-18T07:03:04.097Z,27.00
2018-03-18T07:05:31.716Z,27.10
2018-03-18T07:07:59.373Z,27.20
2018-03-18T07:10:26.992Z,27.30
2018-03-18T07:12:54.662Z,27.00
2018-03-18T07:15:22.612Z,26.40
2018-03-18T07:17:50.636Z,25.50
2018-03-18T07:20:18.299Z,26.40
2018-03-18T07:22:45.913Z,26.40
2018-03-18T07:25:13.584Z,25.80
2018-03-18T07:27:41.508Z,26.30
2018-03-18T07:30:09.269Z,25.60
2018-03-18T07:32:36.905Z,24.40
2018-03-18T07:35:04.705Z,24.90
2018-03-18T07:37:32.357Z,26.40
2018-03-18T07:39:59.989Z,25.20
2018-03-18T07:42:27.648Z,24.30
2018-03-18T07:44:55.269Z,24.10
2018-03-18T07:47:22.929Z,25.20
2018-03-18T07:49:50.589Z,24.40
2018-03-18T07:52:18.258Z,23.40
2018-03-18T07:54:45.877Z,24.10
2018-03-18T07:57:13.505Z,23.30
2018-03-18T07:59:41.173Z,23.00
2018-03-18T08:02:08.792Z,22.10
2018-03-18T08:04:36.417Z,22.50
2018-03-18T08:07:04.076Z,22.30
2018-03-18T08:09:31.749Z,22.30
2018-03-18T08:11:59.845Z,22.20
2018-03-18T08:14:27.772Z,21.90
2018-03-18T08:16:55.429Z,21.40
2018-03-18T08:19:23.045Z,21.60
2018-03-18T08:21:51.045Z,20.60
2018-03-18T08:24:18.661Z,19.30
2018-03-18T08:26:46.275Z,21.50
2018-03-18T08:29:13.952Z,20.30
2018-03-18T08:31:41.569Z,20.50
2018-03-18T08:34:09.198Z,19.90
2018-03-18T08:36:37.625Z,17.30
2018-03-18T08:39:05.255Z,17.60
2018-03-18T08:41:32.900Z,18.20
2018-03-18T08:44:01.229Z,18.00
2018-03-18T08:46:28.853Z,19.50
2018-03-18T08:48:56.518Z,18.30
2018-03-18T08:51:24.899Z,17.90
2018-03-18T08:53:52.552Z,17.30
2018-03-18T08:56:20.222Z,17.70
2018-03-18T08:58:47.910Z,17.00
2018-03-18T09:01:15.573Z,17.40
2018-03-18T09:03:43.226Z,17.00
2018-03-18T09:06:11.505Z,16.70
2018-03-18T09:08:39.171Z,16.30
2018-03-18T09:11:06.845Z,16.40
2018-03-18T09:13:34.470Z,17.40
2018-03-18T09:16:02.082Z,16.60
2018-03-18T09:18:30.413Z,16.00
2018-03-18T09:20:58.029Z,14.40
2018-03-18T09:23:25.651Z,15.30
2018-03-18T09:25:53.509Z,14.10
2018-03-18T09:28:21.171Z,13.80
2018-03-18T09:30:49.376Z,14.50
2018-03-18T09:33:17.044Z,14.80
2018-03-18T09:35:45.960Z,13.70
2018-03-18T09:38:13.585Z,13.60
2018-03-18T09:40:41.257Z,14.30
2018-03-18T09:43:09.644Z,14.20
2018-03-18T09:45:38.093Z,12.80
2018-03-18T09:48:06.277Z,12.70
2018-03-18T09:50:34.122Z,12.90
2018-03-18T09:53:01.752Z,12.80
2018-03-18T09:55:29.376Z,13.60
2018-03-18T09:57:57.717Z,10.30
2018-03-18T10:00:25.964Z,11.20
2018-03-18T10:02:53.623Z,11.70
2018-03-18T10:05:21.241Z,11.40
2018-03-18T10:07:48.905Z,12.30
2018-03-18T10:10:16.523Z,12.20
2018-03-18T10:12:44.294Z,10.90
2018-03-18T10:15:11.967Z,11.70
2018-03-18T10:17:39.573Z,10.70
2018-03-18T10:20:07.241Z,11.40
2018-03-18T10:22:35.040Z,10.90
2018-03-18T10:25:02.648Z,11.80
2018-03-18T10:27:30.297Z,10.70
2018-03-18T10:29:58.728Z,10.50
2018-03-18T10:32:26.789Z,10.50
2018-03-18T10:34:55.065Z,11.00
2018-03-18T10:37:23.220Z,9.10
2018-03-18T10:39:51.803Z,8.50
2018-03-18T10:42:25.829Z,9.00
2018-03-18T10:44:53.796Z,9.40
2018-03-18T10:47:21.465Z,8.60
2018-03-18T10:49:49.849Z,6.60
2018-03-18T10:52:17.449Z,9.20
2018-03-18T10:54:45.868Z,7.80
2018-03-18T10:57:13.512Z,7.90
2018-03-18T10:59:41.175Z,8.80
2018-03-18T11:02:14.738Z,7.50
2018-03-18T11:04:43.101Z,8.00
2018-03-18T11:07:10.765Z,7.70
2018-03-18T11:09:38.427Z,7.10
2018-03-18T11:12:06.037Z,7.20
2018-03-18T11:14:33.648Z,7.30
2018-03-18T11:17:01.952Z,8.90
2018-03-18T11:19:29.608Z,7.50
2018-03-18T11:21:57.243Z,7.90
2018-03-18T11:24:24.908Z,8.80
2018-03-18T11:26:52.528Z,6.80
2018-03-18T11:29:20.201Z,8.00
2018-03-18T11:31:47.812Z,6.10
2018-03-18T11:34:23.592Z,8.80
2018-03-18T11:36:51.205Z,9.00
2018-03-18T11:39:19.777Z,8.60
2018-03-18T11:41:47.444Z,8.90
2018-03-18T11:44:15.879Z,6.20
2018-03-18T11:46:43.484Z,6.00
2018-03-18T11:49:11.755Z,7.80
2018-03-18T11:51:39.372Z,10.30
2018-03-18T11:54:06.994Z,10.80
2018-03-18T11:56:34.646Z,9.50
2018-03-18T11:59:02.298Z,8.30
2018-03-18T12:01:29.950Z,9.70
2018-03-18T12:03:57.606Z,9.20
2018-03-18T12:06:27.163Z,9.80
2018-03-18T12:08:59.501Z,9.00
2018-03-18T12:11:27.270Z,8.70
2018-03-18T12:13:54.939Z,9.70
2018-03-18T12:16:22.556Z,11.10
2018-03-18T12:18:50.225Z,9.70
2018-03-18T12:21:18.153Z,10.80
2018-03-18T12:23:45.766Z,10.10
2018-03-18T12:26:13.429Z,9.00
2018-03-18T12:28:41.043Z,11.30
2018-03-18T12:31:08.704Z,11.50
2018-03-18T12:33:36.377Z,12.00
2018-03-18T12:36:03.991Z,11.00
2018-03-18T12:38:31.604Z,10.50
2018-03-18T12:40:59.256Z,9.10
2018-03-18T12:43:30.462Z,9.20
2018-03-18T12:45:58.137Z,8.80
2018-03-18T12:48:25.940Z,9.10
2018-03-18T12:50:54.378Z,8.70
2018-03-18T12:53:21.992Z,8.40
2018-03-18T12:55:49.636Z,9.80
2018-03-18T12:58:18.022Z,11.00
2018-03-18T13:00:46.406Z,10.40
2018-03-18T13:03:14.833Z,10.10
2018-03-18T13:05:42.501Z,9.80
2018-03-18T13:08:10.713Z,10.70
2018-03-18T13:10:39.368Z,11.50
2018-03-18T13:13:06.989Z,10.20
2018-03-18T13:15:34.649Z,11.20
2018-03-18T13:18:02.261Z,11.00
2018-03-18T13:20:30.000Z,12.60
2018-03-18T13:22:57.652Z,9.60
2018-03-18T13:25:25.264Z,11.10
2018-03-18T13:30:43.920Z,9.10
2018-03-18T13:33:11.602Z,10.70
2018-03-18T13:35:39.216Z,10.20
2018-03-18T13:38:07.932Z,9.10
2018-03-18T13:40:35.552Z,8.10
2018-03-18T13:43:03.781Z,11.60
2018-03-18T13:45:31.429Z,9.00
2018-03-18T13:47:59.036Z,8.80
2018-03-18T13:50:26.813Z,8.50
2018-03-18T13:52:54.424Z,8.30
2018-03-18T13:55:22.068Z,9.80
2018-03-18T13:57:51.262Z,9.00
2018-03-18T14:00:18.924Z,9.00
2018-03-18T14:02:47.569Z,10.70
2018-03-18T14:05:15.178Z,10.60
2018-03-18T14:07:42.833Z,11.10
2018-03-18T14:10:11.257Z,8.10
2018-03-18T14:12:38.964Z,8.90
2018-03-18T14:15:06.565Z,9.50
2018-03-18T14:17:34.208Z,9.70
2018-03-18T14:20:01.929Z,10.50
2018-03-18T14:22:30.507Z,12.10
2018-03-18T14:24:58.125Z,8.30
2018-03-18T14:27:25.805Z,8.20
2018-03-18T14:29:53.475Z,9.20
2018-03-18T14:32:21.133Z,8.60
2018-03-18T14:34:48.753Z,11.00
2018-03-18T14:37:16.408Z,9.60
2018-03-18T14:39:44.101Z,9.00
2018-03-18T14:42:11.759Z,7.40
2018-03-18T14:44:39.840Z,8.80
2018-03-18T14:47:08.255Z,9.50
2018-03-18T14:49:36.697Z,11.70
2018-03-18T14:52:04.365Z,11.90
2018-03-18T14:54:31.973Z,10.90
2018-03-18T14:56:59.641Z,11.80
2018-03-18T14:59:27.432Z,12.30
2018-03-18T15:01:55.070Z,13.40
2018-03-18T15:04:22.878Z,12.20
2018-03-18T15:06:51.268Z,13.20
2018-03-18T15:09:18.888Z,13.00
2018-03-18T15:11:47.217Z,12.10
2018-03-18T15:14:19.597Z,13.10
2018-03-18T15:16:50.091Z,10.00
2018-03-18T15:19:23.522Z,11.20
2018-03-18T15:21:52.377Z,10.30
2018-03-18T15:24:20.949Z,13.60
2018-03-18T15:26:48.553Z,13.50
2018-03-18T15:29:16.820Z,13.40
2018-03-18T15:31:45.638Z,14.80
2018-03-18T15:34:13.284Z,13.70
2018-03-18T15:36:42.761Z,14.10
2018-03-18T15:39:11.017Z,13.40
2018-03-18T15:41:40.150Z,15.10
2018-03-18T15:44:07.822Z,15.10
2018-03-18T15:46:35.725Z,14.10
2018-03-18T15:49:04.942Z,15.00
2018-03-18T15:51:33.165Z,15.20
2018-03-18T15:54:01.495Z,14.90
2018-03-18T15:56:35.209Z,13.70
2018-03-18T15:59:08.176Z,15.60
2018-03-18T16:01:40.277Z,14.20
2018-03-18T16:04:13.082Z,13.70
2018-03-18T16:06:42.402Z,13.80
2018-03-18T16:09:10.784Z,14.20
2018-03-18T16:11:38.442Z,15.40
2018-03-18T16:14:08.283Z,14.50
2018-03-18T16:16:36.656Z,14.70
2018-03-18T16:19:05.554Z,16.10
2018-03-18T16:21:35.632Z,16.30
2018-03-18T16:24:03.283Z,16.10
2018-03-18T16:26:33.813Z,14.50
2018-03-18T16:29:13.261Z,15.30
2018-03-18T16:31:40.996Z,16.30
2018-03-18T16:34:08.628Z,16.10
2018-03-18T16:36:36.750Z,17.50
2018-03-18T16:39:05.148Z,17.90
2018-03-18T16:41:32.849Z,18.70
2018-03-18T16:44:00.550Z,19.10
2018-03-18T16:46:28.165Z,18.90
2018-03-18T16:48:55.985Z,19.70
2018-03-18T16:51:24.420Z,21.10
2018-03-18T16:53:53.247Z,21.20
2018-03-18T16:56:20.921Z,20.60
2018-03-18T16:58:48.566Z,19.90
2018-03-18T17:01:16.962Z,22.20
2018-03-18T17:03:44.641Z,22.10
2018-03-18T17:06:13.026Z,22.60
2018-03-18T17:08:40.715Z,22.40
2018-03-18T17:11:08.597Z,22.80
2018-03-18T17:13:36.261Z,23.50
2018-03-18T17:16:04.025Z,23.70
2018-03-18T17:18:32.089Z,22.80
2018-03-18T17:21:00.214Z,23.40
2018-03-18T17:23:29.212Z,24.70
2018-03-18T17:25:56.894Z,24.60
2018-03-18T17:28:24.512Z,25.90
2018-03-18T17:30:52.192Z,25.30
2018-03-18T17:33:19.804Z,25.20
2018-03-18T17:35:47.677Z,24.40
2018-03-18T17:38:15.298Z,24.60
2018-03-18T17:40:43.299Z,24.60
2018-03-18T17:43:10.920Z,24.60
2018-03-18T17:45:50.400Z,25.30
2018-03-18T17:48:29.824Z,25.40
2018-03-18T17:51:09.184Z,25.70
2018-03-18T17:53:49.297Z,26.50
2018-03-18T17:56:28.802Z,25.90
2018-03-18T17:58:57.224Z,26.00
2018-03-18T18:01:24.878Z,25.80
2018-03-18T18:03:52.533Z,26.30
2018-03-18T18:06:20.174Z,25.90
2018-03-18T18:08:47.846Z,26.50
2018-03-18T18:11:16.392Z,27.10
2018-03-18T18:13:45.861Z,28.40
2018-03-18T18:16:13.521Z,27.60
2018-03-18T18:18:41.181Z,28.60
2018-03-18T18:21:09.385Z,28.50
2018-03-18T18:23:37.068Z,29.40
2018-03-18T18:26:04.708Z,27.30
2018-03-18T18:28:38.321Z,28.90
2018-03-18T18:31:11.786Z,29.60
2018-03-18T18:33:46.023Z,30.40
2018-03-18T18:36:14.026Z,29.70
2018-03-18T18:38:41.642Z,30.00
2018-03-18T18:41:11.003Z,31.10
2018-03-18T18:43:39.260Z,30.90
2018-03-18T18:46:07.095Z,31.00
2018-03-18T18:48:35.516Z,31.70
2018-03-18T18:51:10.152Z,31.80
2018-03-18T18:53:37.777Z,31.90
2018-03-18T18:56:05.435Z,31.80
2018-03-18T18:58:33.305Z,32.10
2018-03-18T19:01:01.006Z,30.40
2018-03-18T19:03:28.662Z,33.00
2018-03-18T19:05:56.317Z,33.50
2018-03-18T19:08:23.973Z,33.80
2018-03-18T19:10:51.593Z,34.40
2018-03-18T19:13:19.248Z,33.50
2018-03-18T19:15:47.064Z,34.50
2018-03-18T19:18:14.729Z,33.50
2018-03-18T19:20:42.350Z,34.70
2018-03-18T19:23:10.562Z,35.00
2018-03-18T19:25:38.224Z,35.70
2018-03-18T19:28:06.789Z,36.50
2018-03-18T19:30:34.449Z,36.40
2018-03-18T19:33:02.057Z,37.40
2018-03-18T19:35:29.917Z,36.40
2018-03-18T19:37:57.532Z,37.40
2018-03-18T19:40:25.570Z,37.70
2018-03-18T19:42:54.902Z,38.30
2018-03-18T19:45:22.958Z,38.40
2018-03-18T19:47:51.569Z,39.30
2018-03-18T19:50:19.185Z,39.20
2018-03-18T19:52:46.841Z,38.50
2018-03-18T19:55:14.493Z,39.00
2018-03-18T19:57:42.145Z,40.00
2018-03-18T20:00:09.758Z,40.40
2018-03-18T20:02:37.412Z,39.00
2018-03-18T20:05:05.081Z,38.60
2018-03-18T20:07:32.749Z,39.90
2018-03-18T20:10:00.361Z,39.50
2018-03-18T20:12:28.012Z,41.90
2018-03-18T20:14:56.443Z,41.50
2018-03-18T20:17:24.057Z,42.20
2018-03-18T20:19:51.712Z,41.90
2018-03-18T20:22:19.324Z,43.00
2018-03-18T20:24:46.985Z,43.00
2018-03-18T20:27:14.600Z,43.40
2018-03-18T20:29:42.260Z,42.00
2018-03-18T20:32:09.886Z,44.20
2018-03-18T20:34:37.549Z,43.70
2018-03-18T20:37:05.288Z,44.80
2018-03-18T20:39:32.913Z,43.00
2018-03-18T20:42:00.577Z,45.40
2018-03-18T20:44:28.201Z,44.40
2018-03-18T20:46:56.077Z,46.40
2018-03-18T20:49:24.473Z,47.00
2018-03-18T20:51:52.127Z,47.00
2018-03-18T20:54:20.460Z,46.20
2018-03-18T20:56:48.109Z,47.60
2018-03-18T20:59:16.001Z,47.80
2018-03-18T21:01:43.928Z,48.50
2018-03-18T21:04:13.622Z,48.60
2018-03-18T21:06:41.608Z,49.00
2018-03-18T21:09:09.273Z,48.80
2018-03-18T21:11:38.143Z,49.10
2018-03-18T21:14:05.792Z,48.60
2018-03-18T21:16:35.047Z,47.80
2018-03-18T21:19:05.247Z,48.80
2018-03-18T21:21:33.095Z,50.70
2018-03-18T21:24:00.858Z,50.50
2018-03-18T21:26:29.288Z,51.90
2018-03-18T21:28:57.709Z,51.70
2018-03-18T21:31:29.643Z,52.10
2018-03-18T21:34:00.274Z,52.90
2018-03-18T21:36:28.673Z,54.00
2018-03-18T21:38:57.188Z,52.80
2018-03-18T21:41:26.051Z,53.50
2018-03-18T21:43:53.832Z,54.50
2018-03-18T21:46:21.642Z,55.00
2018-03-18T21:48:49.648Z,55.70
2018-03-18T21:51:17.299Z,56.70
2018-03-18T21:53:45.547Z,57.50
2018-03-18T21:56:13.224Z,57.40
2018-03-18T21:58:42.110Z,57.60
2018-03-18T22:01:10.389Z,58.50
2018-03-18T22:03:38.377Z,59.10
2018-03-18T22:06:07.980Z,60.10
2018-03-18T22:08:35.685Z,60.00
2018-03-18T22:11:07.267Z,61.50
2018-03-18T22:13:36.404Z,61.30
2018-03-18T22:16:05.617Z,61.90
2018-03-18T22:18:36.133Z,62.30
2018-03-18T22:21:06.233Z,62.90
2018-03-18T22:23:35.769Z,63.70
2018-03-18T22:26:03.377Z,64.50
2018-03-18T22:28:31.032Z,65.00
2018-03-18T22:30:59.225Z,65.90
2018-03-18T22:33:26.832Z,66.20
2018-03-18T22:35:56.270Z,66.90
2018-03-18T22:38:24.861Z,66.70
2018-03-18T22:40:53.280Z,67.90
2018-03-18T22:43:21.719Z,68.10
2018-03-18T22:45:49.815Z,67.50
2018-03-18T22:48:17.480Z,69.20
2018-03-18T22:50:48.207Z,70.30
2018-03-18T22:53:16.965Z,70.20
2018-03-18T22:55:46.284Z,71.00
2018-03-18T22:58:14.857Z,71.40
2018-03-18T23:00:42.467Z,71.70
2018-03-18T23:03:10.116Z,71.90
2018-03-18T23:05:37.768Z,72.30
2018-03-18T23:08:07.912Z,73.30
2018-03-18T23:10:37.316Z,74.00
2018-03-18T23:13:06.435Z,74.40
2018-03-18T23:15:35.736Z,74.50
2018-03-18T23:18:03.428Z,74.80
2018-03-18T23:20:31.050Z,76.00
2018-03-18T23:22:58.717Z,76.80
2018-03-18T23:25:26.325Z,77.00
2018-03-18T23:27:54.169Z,77.40
2018-03-18T23:30:21.816Z,77.80
2018-03-18T23:32:49.697Z,76.90
2018-03-18T23:35:18.684Z,78.80
2018-03-18T23:37:48.794Z,79.40
2018-03-18T23:40:16.669Z,79.60
2018-03-18T23:42:46.603Z,80.00
2018-03-18T23:45:16.016Z,81.10
2018-03-18T23:47:43.689Z,81.20
2018-03-18T23:50:12.110Z,82.50
2018-03-18T23:52:39.776Z,82.40
2018-03-18T23:55:07.944Z,82.70
2018-03-18T23:57:36.104Z,82.90
